Holton, Kansas
Current Conditions -  °F | °C
As of 11:53 AM on Friday 28 Nov 2014 (Local Time) from KTOP Reporting Station
Clear Clear  
Wind Chill: 55°   Ceiling: Unl
Heat Index: 55°   Visibility: 10mi
Dew Point: 31°   Wind: 10mph
Humidity: 40%   Direction: 190°S
Pressure: 29.89"   Gusts: NA
Location:  39.47°N, 95.74°W
Report Text: KTOP 281753Z 19009KT 10SM CLR 13/M01 A2989 RMK AO2 SLP124 T01281006 10128 20022 58028
Loading
Personal Weather Stations






























Interactive Weather Map New forecast layout! Learn more

10-Day Weather Forecast

Advertisements
Track Severe Weather on mobile